createdAt,value
2024-03-24T00:00:43.735Z,8.40
2024-03-24T00:03:31.561Z,7.30
2024-03-24T00:05:59.433Z,8.30
2024-03-24T00:08:27.231Z,8.40
2024-03-24T00:10:56.834Z,7.20
2024-03-24T00:13:25.375Z,9.00
2024-03-24T00:15:55.671Z,8.40
2024-03-24T00:18:23.404Z,8.70
2024-03-24T00:20:51.931Z,7.80
2024-03-24T00:23:20.746Z,9.80
2024-03-24T00:25:48.488Z,6.20
2024-03-24T00:28:16.289Z,8.90
2024-03-24T00:30:44.075Z,8.90
2024-03-24T00:33:12.091Z,7.20
2024-03-24T00:35:40.026Z,9.30
2024-03-24T00:38:07.810Z,9.20
2024-03-24T00:40:35.798Z,8.70
2024-03-24T00:43:03.710Z,8.80
2024-03-24T00:45:31.511Z,9.30
2024-03-24T00:48:00.051Z,9.80
2024-03-24T00:50:28.054Z,9.80
2024-03-24T00:52:55.925Z,9.80
2024-03-24T00:55:23.850Z,8.40
2024-03-24T00:57:52.491Z,10.10
2024-03-24T01:00:20.586Z,9.10
2024-03-24T01:02:52.201Z,9.00
2024-03-24T01:05:20.127Z,6.70
2024-03-24T01:07:51.664Z,9.20
2024-03-24T01:10:19.595Z,8.40
2024-03-24T01:12:50.782Z,8.50
2024-03-24T01:15:18.864Z,8.80
2024-03-24T01:17:47.692Z,8.80
2024-03-24T01:20:15.847Z,7.60
2024-03-24T01:22:47.062Z,7.80
2024-03-24T01:25:14.936Z,8.40
2024-03-24T01:27:42.840Z,7.90
2024-03-24T01:30:11.704Z,8.70
2024-03-24T01:32:39.711Z,7.60
2024-03-24T01:35:07.897Z,8.50
2024-03-24T01:37:37.512Z,7.20
2024-03-24T01:40:05.834Z,7.30
2024-03-24T01:42:33.692Z,8.40
2024-03-24T01:45:01.473Z,6.90
2024-03-24T01:47:29.776Z,7.70
2024-03-24T01:49:57.749Z,6.70
2024-03-24T01:52:25.734Z,7.10
2024-03-24T01:54:53.751Z,6.70
2024-03-24T01:57:21.513Z,6.60
2024-03-24T01:59:51.457Z,6.20
2024-03-24T02:02:19.446Z,5.10
2024-03-24T02:04:50.959Z,6.30
2024-03-24T02:07:19.348Z,5.80
2024-03-24T02:09:47.176Z,6.10
2024-03-24T02:12:14.975Z,5.30
2024-03-24T02:14:43.679Z,5.40
2024-03-24T02:17:11.475Z,5.80
2024-03-24T02:19:39.388Z,6.40
2024-03-24T02:22:07.366Z,5.80
2024-03-24T02:24:35.178Z,6.70
2024-03-24T02:27:03.117Z,5.90
2024-03-24T02:29:31.078Z,6.10
2024-03-24T02:31:58.932Z,5.60
2024-03-24T02:34:26.738Z,6.50
2024-03-24T02:36:54.451Z,6.20
2024-03-24T02:39:22.217Z,5.40
2024-03-24T02:41:50.361Z,6.40
2024-03-24T02:44:18.337Z,6.40
2024-03-24T02:46:46.106Z,5.20
2024-03-24T02:49:14.029Z,6.70
2024-03-24T02:51:41.901Z,5.80
2024-03-24T02:54:09.698Z,6.00
2024-03-24T02:56:37.461Z,6.60
2024-03-24T02:59:05.306Z,5.70
2024-03-24T03:01:33.401Z,6.20
2024-03-24T03:04:01.807Z,5.60
2024-03-24T03:06:29.639Z,5.70
2024-03-24T03:08:57.412Z,5.70
2024-03-24T03:11:25.173Z,5.50
2024-03-24T03:13:52.892Z,5.90
2024-03-24T03:16:21.844Z,5.10
2024-03-24T03:18:49.783Z,5.50
2024-03-24T03:21:17.709Z,6.40
2024-03-24T03:23:45.851Z,5.50
2024-03-24T03:26:13.663Z,4.80
2024-03-24T03:28:41.444Z,5.50
2024-03-24T03:31:09.166Z,5.70
2024-03-24T03:33:36.889Z,5.40
2024-03-24T03:36:05.027Z,5.60
2024-03-24T03:38:32.883Z,5.10
2024-03-24T03:41:02.216Z,5.90
2024-03-24T03:43:30.037Z,4.50
2024-03-24T03:45:57.806Z,5.50
2024-03-24T03:48:25.716Z,5.20
2024-03-24T03:50:53.522Z,5.20
2024-03-24T03:53:26.167Z,4.90
2024-03-24T03:55:54.064Z,5.80
2024-03-24T03:58:22.190Z,5.70
2024-03-24T04:00:50.217Z,5.60
2024-03-24T04:03:18.034Z,4.70
2024-03-24T04:05:45.841Z,5.10
2024-03-24T04:08:13.547Z,5.70
2024-03-24T04:10:41.314Z,5.60
2024-03-24T04:13:09.169Z,5.50
2024-03-24T04:15:41.171Z,4.90
2024-03-24T04:18:08.908Z,5.00
2024-03-24T04:20:38.012Z,5.20
2024-03-24T04:23:05.932Z,5.50
2024-03-24T04:25:33.768Z,5.20
2024-03-24T04:28:01.538Z,5.80
2024-03-24T04:30:33.761Z,5.70
2024-03-24T04:33:01.521Z,5.80
2024-03-24T04:35:29.537Z,5.50
2024-03-24T04:37:57.615Z,5.50
2024-03-24T04:40:25.386Z,5.50
2024-03-24T04:42:53.503Z,5.40
2024-03-24T04:45:22.114Z,5.30
2024-03-24T04:47:49.915Z,5.20
2024-03-24T04:50:17.834Z,5.40
2024-03-24T04:52:47.879Z,4.40
2024-03-24T04:55:15.864Z,5.00
2024-03-24T04:57:43.819Z,4.70
2024-03-24T05:00:12.152Z,5.20
2024-03-24T05:02:40.717Z,4.70
2024-03-24T05:05:09.173Z,5.30
2024-03-24T05:07:37.323Z,4.80
2024-03-24T05:10:05.499Z,5.10
2024-03-24T05:12:33.360Z,5.20
2024-03-24T05:15:01.288Z,5.50
2024-03-24T05:17:29.116Z,5.00
2024-03-24T05:19:56.897Z,6.00
2024-03-24T05:22:24.671Z,4.90
2024-03-24T05:24:53.250Z,4.70
2024-03-24T05:27:21.079Z,5.30
2024-03-24T05:29:48.975Z,5.00
2024-03-24T05:32:16.799Z,4.50
2024-03-24T05:34:45.035Z,4.90
2024-03-24T05:37:12.954Z,4.00
2024-03-24T05:39:42.108Z,4.50
2024-03-24T05:42:11.078Z,4.80
2024-03-24T05:44:39.396Z,5.10
2024-03-24T05:47:07.179Z,4.90
2024-03-24T05:49:34.946Z,5.10
2024-03-24T05:52:02.740Z,5.10
2024-03-24T05:54:30.507Z,5.70
2024-03-24T05:57:00.501Z,5.40
2024-03-24T05:59:28.261Z,5.90
2024-03-24T06:01:56.256Z,6.00
2024-03-24T06:04:24.175Z,5.10
2024-03-24T06:06:52.467Z,4.90
2024-03-24T06:09:20.650Z,4.90
2024-03-24T06:11:48.558Z,4.70
2024-03-24T06:14:16.354Z,4.60
2024-03-24T06:16:44.237Z,4.60
2024-03-24T06:19:14.331Z,4.60
2024-03-24T06:21:42.704Z,3.90
2024-03-24T06:24:10.691Z,4.50
2024-03-24T06:26:38.729Z,4.60
2024-03-24T06:29:06.734Z,4.70
2024-03-24T06:31:34.797Z,4.80
2024-03-24T06:34:07.735Z,4.50
2024-03-24T06:36:35.785Z,5.60
2024-03-24T06:39:04.845Z,4.30
2024-03-24T06:41:32.726Z,5.50
2024-03-24T06:44:00.590Z,4.90
2024-03-24T06:46:28.907Z,5.50
2024-03-24T06:49:00.774Z,4.70
2024-03-24T06:51:28.554Z,4.90
2024-03-24T06:53:56.311Z,5.50
2024-03-24T06:56:24.280Z,5.40
2024-03-24T06:58:52.502Z,5.40
2024-03-24T07:01:20.380Z,4.80
2024-03-24T07:03:48.135Z,5.50
2024-03-24T07:06:16.070Z,5.30
2024-03-24T07:08:43.993Z,5.70
2024-03-24T07:11:11.939Z,5.10
2024-03-24T07:13:39.712Z,4.90
2024-03-24T07:16:08.878Z,5.20
2024-03-24T07:18:36.777Z,5.50
2024-03-24T07:21:06.675Z,5.70
2024-03-24T07:23:35.158Z,4.70
2024-03-24T07:26:04.228Z,5.20
2024-03-24T07:28:32.061Z,4.80
2024-03-24T07:30:59.980Z,5.00
2024-03-24T07:33:29.362Z,4.80
2024-03-24T07:35:59.295Z,5.00
2024-03-24T07:39:18.826Z,4.80
2024-03-24T07:41:48.185Z,5.40
2024-03-24T07:44:16.629Z,6.50
2024-03-24T07:46:44.541Z,6.00
2024-03-24T07:49:12.906Z,5.20
2024-03-24T07:51:41.095Z,5.50
2024-03-24T07:54:09.458Z,8.60
2024-03-24T07:56:39.340Z,8.90
2024-03-24T07:59:07.426Z,7.40
2024-03-24T08:01:35.320Z,8.40
2024-03-24T08:04:03.380Z,5.00
2024-03-24T08:06:31.244Z,14.60
2024-03-24T08:08:58.994Z,18.00
2024-03-24T08:11:26.964Z,7.10
2024-03-24T08:13:54.889Z,7.00
2024-03-24T08:16:22.976Z,7.80
2024-03-24T08:18:50.856Z,18.10
2024-03-24T08:21:18.666Z,25.40
2024-03-24T08:23:46.874Z,4.70
2024-03-24T08:26:14.800Z,10.40
2024-03-24T08:28:43.046Z,15.40
2024-03-24T08:31:11.452Z,5.20
2024-03-24T08:33:39.281Z,7.90
2024-03-24T08:36:08.885Z,5.40
2024-03-24T08:38:36.868Z,4.90
2024-03-24T08:41:04.987Z,4.20
2024-03-24T08:43:33.973Z,7.40
2024-03-24T08:46:01.840Z,19.10
2024-03-24T08:48:38.115Z,17.70
2024-03-24T08:51:09.745Z,11.20
2024-03-24T08:53:37.612Z,18.30
2024-03-24T08:56:06.399Z,7.70
2024-03-24T08:58:34.277Z,6.60
2024-03-24T09:01:04.831Z,5.90
2024-03-24T09:03:34.315Z,10.00
2024-03-24T09:06:02.533Z,9.20
2024-03-24T09:08:32.152Z,6.40
2024-03-24T09:11:00.193Z,8.40
2024-03-24T09:13:28.585Z,18.80
2024-03-24T09:15:57.230Z,8.10
2024-03-24T09:18:25.092Z,7.60
2024-03-24T09:20:53.063Z,5.00
2024-03-24T09:23:21.897Z,5.20
2024-03-24T09:25:49.724Z,6.50
2024-03-24T09:28:17.617Z,5.20
2024-03-24T09:31:04.563Z,19.00
2024-03-24T09:33:32.320Z,9.90
2024-03-24T09:36:01.299Z,19.30
2024-03-24T09:38:32.510Z,6.00
2024-03-24T09:41:00.894Z,6.20
2024-03-24T09:43:28.713Z,6.80
2024-03-24T09:45:56.527Z,11.80
2024-03-24T09:48:26.128Z,6.30
2024-03-24T09:50:57.311Z,5.90
2024-03-24T09:53:25.095Z,6.70
2024-03-24T09:55:55.328Z,6.40
2024-03-24T09:58:24.942Z,6.10
2024-03-24T10:00:53.972Z,6.80
2024-03-24T10:03:21.831Z,5.30
2024-03-24T10:05:51.459Z,5.80
2024-03-24T10:08:19.230Z,5.90
2024-03-24T10:10:47.213Z,6.40
2024-03-24T10:13:15.136Z,5.50
2024-03-24T10:15:44.161Z,5.60
2024-03-24T10:18:13.102Z,5.90
2024-03-24T10:20:40.989Z,5.50
2024-03-24T10:23:09.304Z,6.10
2024-03-24T10:25:37.667Z,6.40
2024-03-24T10:28:05.744Z,4.40
2024-03-24T10:30:40.678Z,5.40
2024-03-24T10:33:08.556Z,5.80
2024-03-24T10:35:36.388Z,5.40
2024-03-24T10:38:05.254Z,6.30
2024-03-24T10:40:34.784Z,6.10
2024-03-24T10:43:05.701Z,5.60
2024-03-24T10:45:33.685Z,5.80
2024-03-24T10:48:05.128Z,6.30
2024-03-24T10:50:36.977Z,5.40
2024-03-24T10:53:11.645Z,5.80
2024-03-24T10:55:39.605Z,5.80
2024-03-24T10:58:07.921Z,5.90
2024-03-24T11:00:35.955Z,6.30
2024-03-24T11:03:06.017Z,5.60
2024-03-24T11:05:37.086Z,5.80
2024-03-24T11:08:07.827Z,5.20
2024-03-24T11:10:35.948Z,6.50
2024-03-24T11:13:06.480Z,6.10
2024-03-24T11:15:36.171Z,5.40
2024-03-24T11:18:05.186Z,5.30
2024-03-24T11:20:34.866Z,5.40
2024-03-24T11:23:03.107Z,4.80
2024-03-24T11:25:37.995Z,5.30
2024-03-24T11:28:06.310Z,5.70
2024-03-24T11:30:34.315Z,5.30
2024-03-24T11:33:02.828Z,4.80
2024-03-24T11:35:31.166Z,4.80
2024-03-24T11:38:00.091Z,4.80
2024-03-24T11:40:31.694Z,4.60
2024-03-24T11:42:59.816Z,4.80
2024-03-24T11:45:29.616Z,4.90
2024-03-24T11:48:20.955Z,5.00
2024-03-24T11:50:49.507Z,4.50
2024-03-24T11:53:19.956Z,5.50
2024-03-24T11:55:49.677Z,5.10
2024-03-24T11:58:19.771Z,4.80
2024-03-24T12:00:50.831Z,5.60
2024-03-24T12:03:18.739Z,5.50
2024-03-24T12:05:46.770Z,5.70
2024-03-24T12:08:14.807Z,5.70
2024-03-24T12:10:42.711Z,4.60
2024-03-24T12:13:10.517Z,4.20
2024-03-24T12:15:38.473Z,3.90
2024-03-24T12:18:11.241Z,4.10
2024-03-24T12:20:40.078Z,4.80
2024-03-24T12:23:08.769Z,5.30
2024-03-24T12:25:47.175Z,4.80
2024-03-24T12:28:18.745Z,4.60
2024-03-24T12:30:56.548Z,4.20
2024-03-24T12:33:26.425Z,4.20
2024-03-24T12:35:55.857Z,4.30
2024-03-24T12:38:25.008Z,4.50
2024-03-24T12:40:55.404Z,3.90
2024-03-24T12:43:27.201Z,3.30
2024-03-24T12:45:59.166Z,3.90
2024-03-24T12:48:30.622Z,3.40
2024-03-24T12:50:59.015Z,3.20
2024-03-24T12:53:51.276Z,3.60
2024-03-24T12:56:21.387Z,3.90
2024-03-24T12:58:49.621Z,4.20
2024-03-24T13:01:19.532Z,3.20
2024-03-24T13:03:47.737Z,3.30
2024-03-24T13:06:17.623Z,3.20
2024-03-24T13:08:48.524Z,3.30
2024-03-24T13:11:23.594Z,3.20
2024-03-24T13:13:51.644Z,3.00
2024-03-24T13:16:24.942Z,2.90
2024-03-24T13:19:05.056Z,3.30
2024-03-24T13:21:36.833Z,3.50
2024-03-24T13:24:08.483Z,2.50
2024-03-24T13:26:38.932Z,1.80
2024-03-24T13:29:07.192Z,2.00
2024-03-24T13:31:35.262Z,1.90
2024-03-24T13:34:03.137Z,1.50
2024-03-24T13:36:48.053Z,1.90
2024-03-24T13:39:40.898Z,1.80
2024-03-24T13:42:34.969Z,1.90
2024-03-24T13:45:03.092Z,1.70
2024-03-24T13:47:33.620Z,1.90
2024-03-24T13:50:02.493Z,2.00
2024-03-24T13:52:34.824Z,1.90
2024-03-24T13:55:10.251Z,1.70
2024-03-24T13:57:38.170Z,1.90
2024-03-24T14:00:10.548Z,1.90
2024-03-24T14:02:41.456Z,2.00
2024-03-24T14:05:09.405Z,1.70
2024-03-24T14:07:37.385Z,2.40
2024-03-24T14:10:06.361Z,2.50
2024-03-24T14:13:05.603Z,2.20
2024-03-24T14:15:57.083Z,2.10
2024-03-24T14:19:06.123Z,1.90
2024-03-24T14:21:45.163Z,3.70
2024-03-24T14:24:19.091Z,4.30
2024-03-24T14:26:47.829Z,2.60
2024-03-24T14:29:15.731Z,2.80
2024-03-24T14:31:43.632Z,2.30
2024-03-24T14:34:11.468Z,2.70
2024-03-24T14:36:56.005Z,4.10
2024-03-24T14:39:41.887Z,3.20
2024-03-24T14:42:30.145Z,3.80
2024-03-24T14:45:07.108Z,16.70
2024-03-24T14:47:46.462Z,2.60
2024-03-24T14:50:14.859Z,2.10
2024-03-24T14:52:42.747Z,3.30
2024-03-24T14:55:10.770Z,1.80
2024-03-24T14:57:38.608Z,6.50
2024-03-24T15:00:14.243Z,3.70
2024-03-24T15:02:42.490Z,10.00
2024-03-24T15:05:13.195Z,3.50
2024-03-24T15:07:40.950Z,11.00
2024-03-24T15:10:12.051Z,3.50
2024-03-24T15:12:39.968Z,5.50
2024-03-24T15:15:11.704Z,6.10
2024-03-24T15:17:39.731Z,13.50
2024-03-24T15:20:11.188Z,8.00
2024-03-24T15:22:40.307Z,3.30
2024-03-24T15:25:10.599Z,3.00
2024-03-24T15:27:38.783Z,4.40
2024-03-24T15:30:07.304Z,3.50
2024-03-24T15:32:35.127Z,3.10
2024-03-24T15:35:05.000Z,2.90
2024-03-24T15:37:33.291Z,4.20
2024-03-24T15:40:02.053Z,3.80
2024-03-24T15:42:31.315Z,3.00
2024-03-24T15:44:59.380Z,3.10
2024-03-24T15:47:27.216Z,3.30
2024-03-24T15:49:55.136Z,3.30
2024-03-24T15:52:23.346Z,3.40
2024-03-24T15:54:51.521Z,3.30
2024-03-24T15:57:28.534Z,2.90
2024-03-24T16:00:04.875Z,2.90
2024-03-24T16:02:33.053Z,3.20
2024-03-24T16:05:01.885Z,3.40
2024-03-24T16:07:35.802Z,4.20
2024-03-24T16:10:08.060Z,3.60
2024-03-24T16:13:01.201Z,3.90
2024-03-24T16:15:29.193Z,5.00
2024-03-24T16:17:58.673Z,4.70
2024-03-24T16:20:35.986Z,5.50
2024-03-24T16:23:04.789Z,4.50
2024-03-24T16:25:32.773Z,5.20
2024-03-24T16:28:00.633Z,4.80
2024-03-24T16:30:32.106Z,4.70
2024-03-24T16:33:00.957Z,5.40
2024-03-24T16:35:32.080Z,5.60
2024-03-24T16:38:00.431Z,5.90
2024-03-24T16:40:28.334Z,5.10
2024-03-24T16:42:56.322Z,5.40
2024-03-24T16:45:24.369Z,5.00
2024-03-24T16:47:52.770Z,4.50
2024-03-24T16:50:20.990Z,4.80
2024-03-24T16:52:49.567Z,4.50
2024-03-24T16:55:17.533Z,4.10
2024-03-24T16:57:47.059Z,5.80
2024-03-24T17:00:15.147Z,5.60
2024-03-24T17:02:42.983Z,4.20
2024-03-24T17:05:10.901Z,4.60
2024-03-24T17:07:38.694Z,5.80
2024-03-24T17:10:11.224Z,4.00
2024-03-24T17:12:39.635Z,32.70
2024-03-24T17:15:13.668Z,67.60
2024-03-24T17:17:41.632Z,54.20
2024-03-24T17:20:09.956Z,116.90
2024-03-24T17:22:37.964Z,100.50
2024-03-24T17:25:08.327Z,37.30
2024-03-24T17:27:36.212Z,16.90
2024-03-24T17:30:04.663Z,44.50
2024-03-24T17:32:32.963Z,29.80
2024-03-24T17:35:00.837Z,25.40
2024-03-24T17:37:28.805Z,12.50
2024-03-24T17:39:56.631Z,6.10
2024-03-24T17:42:24.407Z,23.80
2024-03-24T17:44:52.258Z,9.10
2024-03-24T17:47:22.820Z,50.90
2024-03-24T17:49:50.771Z,11.30
2024-03-24T17:52:19.584Z,8.80
2024-03-24T17:54:47.445Z,12.50
2024-03-24T17:57:15.264Z,5.70
2024-03-24T17:59:43.184Z,8.50
2024-03-24T18:02:13.195Z,5.70
2024-03-24T18:04:41.854Z,3.60
2024-03-24T18:07:28.506Z,4.10
2024-03-24T18:10:20.259Z,6.30
2024-03-24T18:12:50.382Z,5.10
2024-03-24T18:15:21.023Z,6.30
2024-03-24T18:17:49.015Z,7.30
2024-03-24T18:20:17.129Z,4.70
2024-03-24T18:22:48.309Z,4.60
2024-03-24T18:25:18.518Z,4.30
2024-03-24T18:27:46.493Z,4.20
2024-03-24T18:30:14.691Z,4.60
2024-03-24T18:32:43.113Z,5.10
2024-03-24T18:35:11.057Z,4.20
2024-03-24T18:37:48.758Z,4.70
2024-03-24T18:40:16.873Z,4.80
2024-03-24T18:42:44.930Z,4.90
2024-03-24T18:45:12.846Z,4.10
2024-03-24T18:47:40.924Z,5.10
2024-03-24T18:50:09.446Z,4.60
2024-03-24T18:52:38.324Z,4.80
2024-03-24T18:55:08.754Z,4.70
2024-03-24T18:57:37.729Z,5.40
2024-03-24T19:00:06.346Z,4.70
2024-03-24T19:02:34.406Z,4.80
2024-03-24T19:05:06.572Z,4.70
2024-03-24T19:07:34.820Z,4.50
2024-03-24T19:10:02.819Z,4.90
2024-03-24T19:12:30.800Z,4.20
2024-03-24T19:14:58.765Z,4.60
2024-03-24T19:17:26.622Z,5.20
2024-03-24T19:19:54.599Z,4.40
2024-03-24T19:22:23.428Z,4.20
2024-03-24T19:24:51.292Z,5.50
2024-03-24T19:27:19.111Z,5.00
2024-03-24T19:29:46.920Z,5.10
2024-03-24T19:32:14.794Z,5.10
2024-03-24T19:34:43.878Z,6.00
2024-03-24T19:37:11.791Z,5.70
2024-03-24T19:39:39.775Z,5.60
2024-03-24T19:42:07.753Z,5.30
2024-03-24T19:44:35.648Z,6.80
2024-03-24T19:47:03.879Z,5.70
2024-03-24T19:49:34.177Z,5.90
2024-03-24T19:52:02.481Z,5.20
2024-03-24T19:54:31.831Z,5.60
2024-03-24T19:56:59.947Z,5.50
2024-03-24T19:59:27.892Z,5.40
2024-03-24T20:01:55.872Z,6.10
2024-03-24T20:04:24.167Z,6.10
2024-03-24T20:06:52.080Z,5.40
2024-03-24T20:09:20.053Z,4.90
2024-03-24T20:11:48.013Z,6.30
2024-03-24T20:14:16.069Z,6.60
2024-03-24T20:16:44.199Z,6.30
2024-03-24T20:19:12.018Z,6.00
2024-03-24T20:21:39.974Z,5.40
2024-03-24T20:24:07.984Z,5.90
2024-03-24T20:26:35.893Z,5.50
2024-03-24T20:29:06.678Z,6.10
2024-03-24T20:31:34.693Z,6.60
2024-03-24T20:34:02.465Z,7.30
2024-03-24T20:36:30.400Z,6.70
2024-03-24T20:38:58.306Z,7.00
2024-03-24T20:41:28.162Z,7.90
2024-03-24T20:43:56.033Z,7.20
2024-03-24T20:46:23.850Z,7.80
2024-03-24T20:48:54.656Z,6.90
2024-03-24T20:51:23.621Z,10.10
2024-03-24T20:53:51.572Z,6.90
2024-03-24T20:56:20.303Z,16.50
2024-03-24T20:58:48.244Z,18.20
2024-03-24T21:01:16.340Z,7.10
2024-03-24T21:03:45.034Z,20.50
2024-03-24T21:06:12.998Z,9.10
2024-03-24T21:08:40.759Z,7.70
2024-03-24T21:11:09.350Z,7.30
2024-03-24T21:13:38.066Z,11.60
2024-03-24T21:16:06.411Z,9.70
2024-03-24T21:18:34.886Z,9.00
2024-03-24T21:21:03.086Z,10.10
2024-03-24T21:23:31.154Z,12.60
2024-03-24T21:25:59.030Z,9.80
2024-03-24T21:28:26.951Z,9.50
2024-03-24T21:30:54.941Z,11.70
2024-03-24T21:33:22.832Z,11.00
2024-03-24T21:35:50.835Z,11.40
2024-03-24T21:38:37.588Z,12.50
2024-03-24T21:41:24.639Z,12.60
2024-03-24T21:43:52.692Z,11.00
2024-03-24T21:46:20.560Z,10.10
2024-03-24T21:48:48.348Z,9.60
2024-03-24T21:51:16.364Z,9.50
2024-03-24T21:53:44.164Z,10.20
2024-03-24T21:56:12.024Z,9.50
2024-03-24T21:58:40.329Z,9.20
2024-03-24T22:01:09.480Z,9.00
2024-03-24T22:03:37.561Z,8.90
2024-03-24T22:06:06.502Z,8.30
2024-03-24T22:08:39.433Z,9.70
2024-03-24T22:11:07.667Z,9.70
2024-03-24T22:13:35.494Z,9.60
2024-03-24T22:16:03.964Z,9.90
2024-03-24T22:18:31.751Z,9.50
2024-03-24T22:20:59.600Z,8.50
2024-03-24T22:23:27.405Z,9.80
2024-03-24T22:25:55.262Z,9.80
2024-03-24T22:28:23.091Z,9.90
2024-03-24T22:30:51.125Z,9.50
2024-03-24T22:33:19.071Z,9.60
2024-03-24T22:35:46.876Z,9.10
2024-03-24T22:38:16.228Z,10.00
2024-03-24T22:40:45.362Z,9.40
2024-03-24T22:43:14.633Z,9.50
2024-03-24T22:45:43.079Z,9.70
2024-03-24T22:48:11.186Z,8.60
2024-03-24T22:50:39.868Z,9.40
2024-03-24T22:53:08.318Z,8.30
2024-03-24T22:55:36.448Z,9.00
2024-03-24T22:58:05.062Z,8.90
2024-03-24T23:00:34.522Z,9.30
2024-03-24T23:03:02.377Z,9.80
2024-03-24T23:05:30.500Z,9.80
2024-03-24T23:07:58.314Z,8.90
2024-03-24T23:10:26.128Z,9.80
2024-03-24T23:12:53.955Z,10.10
2024-03-24T23:15:22.032Z,9.20
2024-03-24T23:17:50.088Z,9.50
2024-03-24T23:20:17.890Z,8.80
2024-03-24T23:22:45.617Z,9.60
2024-03-24T23:25:13.504Z,9.20
2024-03-24T23:27:41.403Z,9.60
2024-03-24T23:30:10.010Z,8.60
2024-03-24T23:32:37.861Z,9.90
2024-03-24T23:35:09.969Z,9.60
2024-03-24T23:37:38.818Z,7.90
2024-03-24T23:40:07.447Z,8.70
2024-03-24T23:42:35.243Z,9.30
2024-03-24T23:45:03.122Z,8.80
2024-03-24T23:47:34.214Z,8.60
2024-03-24T23:50:02.929Z,8.80
2024-03-24T23:52:31.862Z,8.80
2024-03-24T23:54:59.721Z,9.00
2024-03-24T23:57:27.623Z,8.10
2024-03-24T23:59:55.558Z,9.00
